sensor_id;sensor_type;location;lat;lon;timestamp;temperature;humidity
68764;DHT22;55754;52.038;5.566;2022-08-19T00:00:16;21.10;73.70
68764;DHT22;55754;52.038;5.566;2022-08-19T00:02:42;21.10;73.90
68764;DHT22;55754;52.038;5.566;2022-08-19T00:05:10;21.00;73.90
68764;DHT22;55754;52.038;5.566;2022-08-19T00:07:35;21.00;73.90
68764;DHT22;55754;52.038;5.566;2022-08-19T00:10:02;21.00;73.90
68764;DHT22;55754;52.038;5.566;2022-08-19T00:12:28;21.00;73.90
68764;DHT22;55754;52.038;5.566;2022-08-19T00:14:54;20.90;73.90
68764;DHT22;55754;52.038;5.566;2022-08-19T00:17:20;20.80;74.00
68764;DHT22;55754;52.038;5.566;2022-08-19T00:19:46;20.80;74.00
68764;DHT22;55754;52.038;5.566;2022-08-19T00:22:11;20.90;73.90
68764;DHT22;55754;52.038;5.566;2022-08-19T00:24:37;20.80;74.00
68764;DHT22;55754;52.038;5.566;2022-08-19T00:27:04;20.80;75.00
68764;DHT22;55754;52.038;5.566;2022-08-19T00:29:30;20.80;74.10
68764;DHT22;55754;52.038;5.566;2022-08-19T00:31:56;20.70;74.00
68764;DHT22;55754;52.038;5.566;2022-08-19T00:34:24;20.70;74.10
68764;DHT22;55754;52.038;5.566;2022-08-19T00:36:53;20.70;74.30
68764;DHT22;55754;52.038;5.566;2022-08-19T00:39:19;20.70;74.20
68764;DHT22;55754;52.038;5.566;2022-08-19T00:41:47;20.70;74.30
68764;DHT22;55754;52.038;5.566;2022-08-19T00:44:22;20.70;74.30
68764;DHT22;55754;52.038;5.566;2022-08-19T00:46:49;20.70;74.30
68764;DHT22;55754;52.038;5.566;2022-08-19T00:49:23;20.70;74.20
68764;DHT22;55754;52.038;5.566;2022-08-19T00:51:54;20.70;74.30
68764;DHT22;55754;52.038;5.566;2022-08-19T00:54:21;20.60;74.20
68764;DHT22;55754;52.038;5.566;2022-08-19T00:56:48;20.50;74.20
68764;DHT22;55754;52.038;5.566;2022-08-19T00:59:16;20.50;74.30
68764;DHT22;55754;52.038;5.566;2022-08-19T01:01:44;20.50;74.40
68764;DHT22;55754;52.038;5.566;2022-08-19T01:04:10;20.40;74.50
68764;DHT22;55754;52.038;5.566;2022-08-19T01:06:37;20.40;74.40
68764;DHT22;55754;52.038;5.566;2022-08-19T01:09:04;20.40;74.40
68764;DHT22;55754;52.038;5.566;2022-08-19T01:11:33;20.40;74.30
68764;DHT22;55754;52.038;5.566;2022-08-19T01:13:59;20.40;74.30
68764;DHT22;55754;52.038;5.566;2022-08-19T01:16:26;20.40;74.50
68764;DHT22;55754;52.038;5.566;2022-08-19T01:18:53;20.40;74.60
68764;DHT22;55754;52.038;5.566;2022-08-19T01:23:55;20.30;74.70
68764;DHT22;55754;52.038;5.566;2022-08-19T01:26:24;20.30;74.60
68764;DHT22;55754;52.038;5.566;2022-08-19T01:28:53;20.20;74.60
68764;DHT22;55754;52.038;5.566;2022-08-19T01:31:21;20.20;74.60
68764;DHT22;55754;52.038;5.566;2022-08-19T01:33:49;20.20;74.70
68764;DHT22;55754;52.038;5.566;2022-08-19T01:36:24;20.30;74.70
68764;DHT22;55754;52.038;5.566;2022-08-19T01:38:51;20.30;74.70
68764;DHT22;55754;52.038;5.566;2022-08-19T01:41:17;20.20;74.70
68764;DHT22;55754;52.038;5.566;2022-08-19T01:43:43;20.20;74.70
68764;DHT22;55754;52.038;5.566;2022-08-19T01:46:09;20.20;74.80
68764;DHT22;55754;52.038;5.566;2022-08-19T01:48:40;20.20;74.80
68764;DHT22;55754;52.038;5.566;2022-08-19T01:51:07;20.20;74.80
68764;DHT22;55754;52.038;5.566;2022-08-19T01:53:33;20.20;74.80
68764;DHT22;55754;52.038;5.566;2022-08-19T01:56:00;20.20;74.70
68764;DHT22;55754;52.038;5.566;2022-08-19T01:58:40;20.20;74.80
68764;DHT22;55754;52.038;5.566;2022-08-19T02:01:07;20.10;75.20
68764;DHT22;55754;52.038;5.566;2022-08-19T02:03:32;20.10;75.00
68764;DHT22;55754;52.038;5.566;2022-08-19T02:06:01;20.10;75.00
68764;DHT22;55754;52.038;5.566;2022-08-19T02:08:29;20.00;75.00
68764;DHT22;55754;52.038;5.566;2022-08-19T02:10:56;20.00;74.80
68764;DHT22;55754;52.038;5.566;2022-08-19T02:13:22;20.00;75.00
68764;DHT22;55754;52.038;5.566;2022-08-19T02:15:48;19.90;74.90
68764;DHT22;55754;52.038;5.566;2022-08-19T02:18:14;19.90;75.00
68764;DHT22;55754;52.038;5.566;2022-08-19T02:20:41;19.90;74.80
68764;DHT22;55754;52.038;5.566;2022-08-19T02:23:07;19.90;74.80
68764;DHT22;55754;52.038;5.566;2022-08-19T02:25:33;19.90;75.00
68764;DHT22;55754;52.038;5.566;2022-08-19T02:27:59;19.80;75.10
68764;DHT22;55754;52.038;5.566;2022-08-19T02:30:25;19.80;75.30
68764;DHT22;55754;52.038;5.566;2022-08-19T02:32:51;19.80;75.30
68764;DHT22;55754;52.038;5.566;2022-08-19T02:35:17;19.80;75.20
68764;DHT22;55754;52.038;5.566;2022-08-19T02:37:44;19.80;75.30
68764;DHT22;55754;52.038;5.566;2022-08-19T02:40:29;19.80;75.40
68764;DHT22;55754;52.038;5.566;2022-08-19T02:42:55;19.70;75.30
68764;DHT22;55754;52.038;5.566;2022-08-19T02:45:21;19.70;75.50
68764;DHT22;55754;52.038;5.566;2022-08-19T02:47:48;19.70;75.40
68764;DHT22;55754;52.038;5.566;2022-08-19T02:50:13;19.60;75.40
68764;DHT22;55754;52.038;5.566;2022-08-19T02:52:39;19.60;75.40
68764;DHT22;55754;52.038;5.566;2022-08-19T02:55:05;19.60;75.40
68764;DHT22;55754;52.038;5.566;2022-08-19T02:57:31;19.60;75.60
68764;DHT22;55754;52.038;5.566;2022-08-19T02:59:57;19.60;75.60
68764;DHT22;55754;52.038;5.566;2022-08-19T03:02:23;19.50;75.60
68764;DHT22;55754;52.038;5.566;2022-08-19T03:04:49;19.50;75.60
68764;DHT22;55754;52.038;5.566;2022-08-19T03:07:16;19.60;75.50
68764;DHT22;55754;52.038;5.566;2022-08-19T03:09:43;19.60;75.50
68764;DHT22;55754;52.038;5.566;2022-08-19T03:12:09;19.50;75.70
68764;DHT22;55754;52.038;5.566;2022-08-19T03:14:36;19.50;75.60
68764;DHT22;55754;52.038;5.566;2022-08-19T03:17:02;19.50;75.70
68764;DHT22;55754;52.038;5.566;2022-08-19T03:19:30;19.50;75.80
68764;DHT22;55754;52.038;5.566;2022-08-19T03:21:57;19.50;75.80
68764;DHT22;55754;52.038;5.566;2022-08-19T03:24:23;19.40;75.80
68764;DHT22;55754;52.038;5.566;2022-08-19T03:26:52;19.40;75.80
68764;DHT22;55754;52.038;5.566;2022-08-19T03:29:20;19.40;75.90
68764;DHT22;55754;52.038;5.566;2022-08-19T03:31:46;19.50;75.90
68764;DHT22;55754;52.038;5.566;2022-08-19T03:34:27;19.50;75.90
68764;DHT22;55754;52.038;5.566;2022-08-19T03:36:55;19.40;75.90
68764;DHT22;55754;52.038;5.566;2022-08-19T03:39:22;19.40;76.00
68764;DHT22;55754;52.038;5.566;2022-08-19T03:41:50;19.40;75.70
68764;DHT22;55754;52.038;5.566;2022-08-19T03:44:21;19.50;75.70
68764;DHT22;55754;52.038;5.566;2022-08-19T03:46:52;19.50;75.70
68764;DHT22;55754;52.038;5.566;2022-08-19T03:49:21;19.40;75.60
68764;DHT22;55754;52.038;5.566;2022-08-19T03:51:48;19.40;75.70
68764;DHT22;55754;52.038;5.566;2022-08-19T03:54:19;19.40;75.90
68764;DHT22;55754;52.038;5.566;2022-08-19T03:56:47;19.40;75.80
68764;DHT22;55754;52.038;5.566;2022-08-19T03:59:26;19.40;75.60
68764;DHT22;55754;52.038;5.566;2022-08-19T04:01:54;19.40;75.60
68764;DHT22;55754;52.038;5.566;2022-08-19T04:04:20;19.40;75.40
68764;DHT22;55754;52.038;5.566;2022-08-19T04:06:47;19.40;75.40
68764;DHT22;55754;52.038;5.566;2022-08-19T04:09:13;19.40;75.40
68764;DHT22;55754;52.038;5.566;2022-08-19T04:11:50;19.40;75.50
68764;DHT22;55754;52.038;5.566;2022-08-19T04:14:21;19.40;75.70
68764;DHT22;55754;52.038;5.566;2022-08-19T04:16:48;19.30;75.50
68764;DHT22;55754;52.038;5.566;2022-08-19T04:19:15;19.40;75.50
68764;DHT22;55754;52.038;5.566;2022-08-19T04:21:43;19.30;75.40
68764;DHT22;55754;52.038;5.566;2022-08-19T04:24:11;19.30;75.40
68764;DHT22;55754;52.038;5.566;2022-08-19T04:26:38;19.30;75.40
68764;DHT22;55754;52.038;5.566;2022-08-19T04:29:11;19.30;75.50
68764;DHT22;55754;52.038;5.566;2022-08-19T04:31:37;19.30;75.80
68764;DHT22;55754;52.038;5.566;2022-08-19T04:34:05;19.20;75.90
68764;DHT22;55754;52.038;5.566;2022-08-19T04:36:35;19.30;76.00
68764;DHT22;55754;52.038;5.566;2022-08-19T04:39:05;19.20;76.00
68764;DHT22;55754;52.038;5.566;2022-08-19T04:41:32;19.20;76.10
68764;DHT22;55754;52.038;5.566;2022-08-19T04:44:16;19.20;76.20
68764;DHT22;55754;52.038;5.566;2022-08-19T04:46:44;19.20;76.10
68764;DHT22;55754;52.038;5.566;2022-08-19T04:49:10;19.20;76.10
68764;DHT22;55754;52.038;5.566;2022-08-19T04:51:39;19.10;75.90
68764;DHT22;55754;52.038;5.566;2022-08-19T04:54:05;19.10;76.20
68764;DHT22;55754;52.038;5.566;2022-08-19T04:56:30;19.10;76.30
68764;DHT22;55754;52.038;5.566;2022-08-19T04:58:57;19.10;76.40
68764;DHT22;55754;52.038;5.566;2022-08-19T05:01:29;19.10;76.30
68764;DHT22;55754;52.038;5.566;2022-08-19T05:03:55;19.10;76.40
68764;DHT22;55754;52.038;5.566;2022-08-19T05:06:22;19.10;76.30
68764;DHT22;55754;52.038;5.566;2022-08-19T05:08:48;19.10;76.40
68764;DHT22;55754;52.038;5.566;2022-08-19T05:11:17;19.10;76.30
68764;DHT22;55754;52.038;5.566;2022-08-19T05:13:44;19.10;76.30
68764;DHT22;55754;52.038;5.566;2022-08-19T05:16:12;19.20;76.20
68764;DHT22;55754;52.038;5.566;2022-08-19T05:18:38;19.20;76.30
68764;DHT22;55754;52.038;5.566;2022-08-19T05:21:24;19.20;76.20
68764;DHT22;55754;52.038;5.566;2022-08-19T05:24:08;19.20;76.20
68764;DHT22;55754;52.038;5.566;2022-08-19T05:26:38;19.20;76.40
68764;DHT22;55754;52.038;5.566;2022-08-19T05:29:05;19.20;76.50
68764;DHT22;55754;52.038;5.566;2022-08-19T05:31:32;19.30;76.50
68764;DHT22;55754;52.038;5.566;2022-08-19T05:33:58;19.30;76.50
68764;DHT22;55754;52.038;5.566;2022-08-19T05:36:28;19.40;76.60
68764;DHT22;55754;52.038;5.566;2022-08-19T05:38:54;19.40;76.90
68764;DHT22;55754;52.038;5.566;2022-08-19T05:41:21;19.40;76.70
68764;DHT22;55754;52.038;5.566;2022-08-19T05:44:02;19.50;77.00
68764;DHT22;55754;52.038;5.566;2022-08-19T05:46:28;19.60;76.80
68764;DHT22;55754;52.038;5.566;2022-08-19T05:48:54;19.80;76.80
68764;DHT22;55754;52.038;5.566;2022-08-19T05:51:22;19.80;76.70
68764;DHT22;55754;52.038;5.566;2022-08-19T05:53:48;20.00;76.60
68764;DHT22;55754;52.038;5.566;2022-08-19T05:56:16;20.10;76.50
68764;DHT22;55754;52.038;5.566;2022-08-19T05:58:42;20.20;76.60
68764;DHT22;55754;52.038;5.566;2022-08-19T06:01:12;20.20;76.80
68764;DHT22;55754;52.038;5.566;2022-08-19T06:03:38;20.20;77.10
68764;DHT22;55754;52.038;5.566;2022-08-19T06:06:05;20.20;76.90
68764;DHT22;55754;52.038;5.566;2022-08-19T06:08:31;20.30;76.70
68764;DHT22;55754;52.038;5.566;2022-08-19T06:10:58;20.30;76.20
68764;DHT22;55754;52.038;5.566;2022-08-19T06:13:36;20.30;76.00
68764;DHT22;55754;52.038;5.566;2022-08-19T06:16:02;20.30;76.50
68764;DHT22;55754;52.038;5.566;2022-08-19T06:18:27;20.30;76.90
68764;DHT22;55754;52.038;5.566;2022-08-19T06:20:53;20.20;77.50
68764;DHT22;55754;52.038;5.566;2022-08-19T06:23:19;20.20;77.80
68764;DHT22;55754;52.038;5.566;2022-08-19T06:25:45;20.30;78.00
68764;DHT22;55754;52.038;5.566;2022-08-19T06:28:11;20.30;78.10
68764;DHT22;55754;52.038;5.566;2022-08-19T06:30:37;20.20;78.10
68764;DHT22;55754;52.038;5.566;2022-08-19T06:33:02;20.30;78.20
68764;DHT22;55754;52.038;5.566;2022-08-19T06:35:28;20.20;78.30
68764;DHT22;55754;52.038;5.566;2022-08-19T06:37:55;20.30;78.40
68764;DHT22;55754;52.038;5.566;2022-08-19T06:40:20;20.30;78.30
68764;DHT22;55754;52.038;5.566;2022-08-19T06:42:46;20.30;78.50
68764;DHT22;55754;52.038;5.566;2022-08-19T06:45:12;20.30;78.60
68764;DHT22;55754;52.038;5.566;2022-08-19T06:47:37;20.30;79.60
68764;DHT22;55754;52.038;5.566;2022-08-19T06:50:03;20.50;78.40
68764;DHT22;55754;52.038;5.566;2022-08-19T06:52:34;20.60;78.40
68764;DHT22;55754;52.038;5.566;2022-08-19T06:55:00;20.60;78.10
68764;DHT22;55754;52.038;5.566;2022-08-19T06:57:27;20.60;78.00
68764;DHT22;55754;52.038;5.566;2022-08-19T06:59:56;20.60;78.20
68764;DHT22;55754;52.038;5.566;2022-08-19T07:02:22;20.60;77.80
68764;DHT22;55754;52.038;5.566;2022-08-19T07:04:51;20.70;77.70
68764;DHT22;55754;52.038;5.566;2022-08-19T07:07:18;20.70;77.50
68764;DHT22;55754;52.038;5.566;2022-08-19T07:09:45;20.80;77.60
68764;DHT22;55754;52.038;5.566;2022-08-19T07:12:13;20.70;77.50
68764;DHT22;55754;52.038;5.566;2022-08-19T07:14:41;20.70;77.50
68764;DHT22;55754;52.038;5.566;2022-08-19T07:17:09;20.70;77.70
68764;DHT22;55754;52.038;5.566;2022-08-19T07:19:37;20.70;77.60
68764;DHT22;55754;52.038;5.566;2022-08-19T07:22:05;20.80;77.60
68764;DHT22;55754;52.038;5.566;2022-08-19T07:24:32;20.70;77.70
68764;DHT22;55754;52.038;5.566;2022-08-19T07:27:00;20.60;78.00
68764;DHT22;55754;52.038;5.566;2022-08-19T07:29:30;20.60;77.70
68764;DHT22;55754;52.038;5.566;2022-08-19T07:31:57;20.50;78.00
68764;DHT22;55754;52.038;5.566;2022-08-19T07:34:24;20.50;78.10
68764;DHT22;55754;52.038;5.566;2022-08-19T07:36:51;20.50;77.70
68764;DHT22;55754;52.038;5.566;2022-08-19T07:39:26;20.60;77.60
68764;DHT22;55754;52.038;5.566;2022-08-19T07:41:53;20.60;77.80
68764;DHT22;55754;52.038;5.566;2022-08-19T07:44:20;20.60;77.80
68764;DHT22;55754;52.038;5.566;2022-08-19T07:46:49;20.50;77.70
68764;DHT22;55754;52.038;5.566;2022-08-19T07:49:16;20.50;77.70
68764;DHT22;55754;52.038;5.566;2022-08-19T07:51:56;20.60;77.60
68764;DHT22;55754;52.038;5.566;2022-08-19T07:54:25;20.70;78.60
68764;DHT22;55754;52.038;5.566;2022-08-19T07:56:51;20.70;77.30
68764;DHT22;55754;52.038;5.566;2022-08-19T07:59:18;20.70;77.30
68764;DHT22;55754;52.038;5.566;2022-08-19T08:01:46;20.70;77.20
68764;DHT22;55754;52.038;5.566;2022-08-19T08:04:12;20.80;77.20
68764;DHT22;55754;52.038;5.566;2022-08-19T08:06:56;21.10;76.90
68764;DHT22;55754;52.038;5.566;2022-08-19T08:09:42;21.40;76.30
68764;DHT22;55754;52.038;5.566;2022-08-19T08:12:21;21.40;75.80
68764;DHT22;55754;52.038;5.566;2022-08-19T08:14:52;21.30;75.30
68764;DHT22;55754;52.038;5.566;2022-08-19T08:17:22;21.30;75.00
68764;DHT22;55754;52.038;5.566;2022-08-19T08:19:48;21.40;74.70
68764;DHT22;55754;52.038;5.566;2022-08-19T08:22:18;21.30;74.50
68764;DHT22;55754;52.038;5.566;2022-08-19T08:25:16;21.30;74.40
68764;DHT22;55754;52.038;5.566;2022-08-19T08:27:43;21.30;74.40
68764;DHT22;55754;52.038;5.566;2022-08-19T08:30:15;21.40;73.90
68764;DHT22;55754;52.038;5.566;2022-08-19T08:32:41;21.40;73.50
68764;DHT22;55754;52.038;5.566;2022-08-19T08:35:10;21.50;73.60
68764;DHT22;55754;52.038;5.566;2022-08-19T08:37:36;21.70;73.10
68764;DHT22;55754;52.038;5.566;2022-08-19T08:40:16;21.80;73.20
68764;DHT22;55754;52.038;5.566;2022-08-19T08:42:55;21.90;73.30
68764;DHT22;55754;52.038;5.566;2022-08-19T08:45:26;22.10;72.40
68764;DHT22;55754;52.038;5.566;2022-08-19T08:47:54;22.30;71.70
68764;DHT22;55754;52.038;5.566;2022-08-19T08:50:34;22.40;71.30
68764;DHT22;55754;52.038;5.566;2022-08-19T08:53:05;22.40;71.00
68764;DHT22;55754;52.038;5.566;2022-08-19T08:55:32;22.30;71.10
68764;DHT22;55754;52.038;5.566;2022-08-19T08:58:04;22.30;71.00
68764;DHT22;55754;52.038;5.566;2022-08-19T09:00:38;22.30;70.90
68764;DHT22;55754;52.038;5.566;2022-08-19T09:03:10;22.40;71.00
68764;DHT22;55754;52.038;5.566;2022-08-19T09:05:49;22.50;70.80
68764;DHT22;55754;52.038;5.566;2022-08-19T09:11:08;22.20;70.60
68764;DHT22;55754;52.038;5.566;2022-08-19T09:16:34;22.10;70.60
68764;DHT22;55754;52.038;5.566;2022-08-19T09:19:03;22.20;70.60
68764;DHT22;55754;52.038;5.566;2022-08-19T09:21:29;22.40;70.50
68764;DHT22;55754;52.038;5.566;2022-08-19T09:23:55;22.40;69.80
68764;DHT22;55754;52.038;5.566;2022-08-19T09:26:22;22.60;69.70
68764;DHT22;55754;52.038;5.566;2022-08-19T09:28:50;22.60;69.10
68764;DHT22;55754;52.038;5.566;2022-08-19T09:31:22;22.70;69.20
68764;DHT22;55754;52.038;5.566;2022-08-19T09:33:49;22.70;69.10
68764;DHT22;55754;52.038;5.566;2022-08-19T09:36:17;22.70;69.10
68764;DHT22;55754;52.038;5.566;2022-08-19T09:38:44;22.70;69.00
68764;DHT22;55754;52.038;5.566;2022-08-19T09:41:16;22.80;68.90
68764;DHT22;55754;52.038;5.566;2022-08-19T09:43:44;22.90;68.70
68764;DHT22;55754;52.038;5.566;2022-08-19T09:46:11;22.90;68.10
68764;DHT22;55754;52.038;5.566;2022-08-19T09:48:38;22.90;67.90
68764;DHT22;55754;52.038;5.566;2022-08-19T09:51:13;22.90;67.90
68764;DHT22;55754;52.038;5.566;2022-08-19T09:53:46;23.00;67.90
68764;DHT22;55754;52.038;5.566;2022-08-19T09:56:13;23.00;67.70
68764;DHT22;55754;52.038;5.566;2022-08-19T09:58:40;23.00;67.80
68764;DHT22;55754;52.038;5.566;2022-08-19T10:01:06;23.20;67.10
68764;DHT22;55754;52.038;5.566;2022-08-19T10:03:34;23.30;66.80
68764;DHT22;55754;52.038;5.566;2022-08-19T10:06:02;23.30;66.50
68764;DHT22;55754;52.038;5.566;2022-08-19T10:08:31;23.40;66.70
68764;DHT22;55754;52.038;5.566;2022-08-19T10:10:59;23.40;66.20
68764;DHT22;55754;52.038;5.566;2022-08-19T10:13:28;23.50;65.90
68764;DHT22;55754;52.038;5.566;2022-08-19T10:15:56;23.60;65.50
68764;DHT22;55754;52.038;5.566;2022-08-19T10:18:23;23.70;65.00
68764;DHT22;55754;52.038;5.566;2022-08-19T10:20:51;23.70;65.20
68764;DHT22;55754;52.038;5.566;2022-08-19T10:23:21;23.70;64.80
68764;DHT22;55754;52.038;5.566;2022-08-19T10:25:47;23.90;64.30
68764;DHT22;55754;52.038;5.566;2022-08-19T10:28:13;23.90;64.30
68764;DHT22;55754;52.038;5.566;2022-08-19T10:30:39;24.00;64.60
68764;DHT22;55754;52.038;5.566;2022-08-19T10:33:05;24.10;64.40
68764;DHT22;55754;52.038;5.566;2022-08-19T10:35:31;24.10;63.70
68764;DHT22;55754;52.038;5.566;2022-08-19T10:37:57;24.20;63.60
68764;DHT22;55754;52.038;5.566;2022-08-19T10:40:26;24.30;63.70
68764;DHT22;55754;52.038;5.566;2022-08-19T10:42:53;24.30;63.50
68764;DHT22;55754;52.038;5.566;2022-08-19T10:45:19;24.20;63.50
68764;DHT22;55754;52.038;5.566;2022-08-19T10:47:47;24.20;63.50
68764;DHT22;55754;52.038;5.566;2022-08-19T10:50:13;24.10;63.60
68764;DHT22;55754;52.038;5.566;2022-08-19T10:52:57;24.30;63.80
68764;DHT22;55754;52.038;5.566;2022-08-19T10:55:23;24.20;63.90
68764;DHT22;55754;52.038;5.566;2022-08-19T10:58:19;24.30;63.70
68764;DHT22;55754;52.038;5.566;2022-08-19T11:00:52;24.40;63.30
68764;DHT22;55754;52.038;5.566;2022-08-19T11:03:18;24.40;63.50
68764;DHT22;55754;52.038;5.566;2022-08-19T11:05:44;24.50;63.30
68764;DHT22;55754;52.038;5.566;2022-08-19T11:08:10;24.60;62.80
68764;DHT22;55754;52.038;5.566;2022-08-19T11:10:42;24.70;62.40
68764;DHT22;55754;52.038;5.566;2022-08-19T11:13:08;24.70;61.90
68764;DHT22;55754;52.038;5.566;2022-08-19T11:15:33;24.70;61.80
68764;DHT22;55754;52.038;5.566;2022-08-19T11:18:00;24.60;61.90
68764;DHT22;55754;52.038;5.566;2022-08-19T11:20:25;24.60;62.10
68764;DHT22;55754;52.038;5.566;2022-08-19T11:22:52;24.80;62.10
68764;DHT22;55754;52.038;5.566;2022-08-19T11:25:19;24.90;62.00
68764;DHT22;55754;52.038;5.566;2022-08-19T11:27:45;25.00;62.10
68764;DHT22;55754;52.038;5.566;2022-08-19T11:30:13;25.00;61.80
68764;DHT22;55754;52.038;5.566;2022-08-19T11:32:39;24.90;61.60
68764;DHT22;55754;52.038;5.566;2022-08-19T11:35:05;25.00;61.90
68764;DHT22;55754;52.038;5.566;2022-08-19T11:37:31;25.00;61.70
68764;DHT22;55754;52.038;5.566;2022-08-19T11:40:04;25.00;61.70
68764;DHT22;55754;52.038;5.566;2022-08-19T11:42:30;25.00;61.60
68764;DHT22;55754;52.038;5.566;2022-08-19T11:45:15;25.00;61.70
68764;DHT22;55754;52.038;5.566;2022-08-19T11:47:40;25.00;61.80
68764;DHT22;55754;52.038;5.566;2022-08-19T11:50:06;25.20;61.80
68764;DHT22;55754;52.038;5.566;2022-08-19T11:52:32;25.30;61.60
68764;DHT22;55754;52.038;5.566;2022-08-19T11:54:57;25.40;61.50
68764;DHT22;55754;52.038;5.566;2022-08-19T11:57:23;25.40;61.20
68764;DHT22;55754;52.038;5.566;2022-08-19T11:59:51;25.20;62.00
68764;DHT22;55754;52.038;5.566;2022-08-19T12:02:17;25.10;61.40
68764;DHT22;55754;52.038;5.566;2022-08-19T12:04:43;25.00;61.50
68764;DHT22;55754;52.038;5.566;2022-08-19T12:07:08;25.20;63.00
68764;DHT22;55754;52.038;5.566;2022-08-19T12:09:34;25.30;61.60
68764;DHT22;55754;52.038;5.566;2022-08-19T12:12:00;25.40;61.60
68764;DHT22;55754;52.038;5.566;2022-08-19T12:14:27;25.40;61.30
68764;DHT22;55754;52.038;5.566;2022-08-19T12:16:56;25.20;61.20
68764;DHT22;55754;52.038;5.566;2022-08-19T12:19:22;25.20;61.10
68764;DHT22;55754;52.038;5.566;2022-08-19T12:21:47;25.30;61.40
68764;DHT22;55754;52.038;5.566;2022-08-19T12:24:13;25.30;61.50
68764;DHT22;55754;52.038;5.566;2022-08-19T12:26:39;25.40;61.20
68764;DHT22;55754;52.038;5.566;2022-08-19T12:29:05;25.40;60.90
68764;DHT22;55754;52.038;5.566;2022-08-19T12:31:31;25.50;61.00
68764;DHT22;55754;52.038;5.566;2022-08-19T12:33:57;25.60;60.60
68764;DHT22;55754;52.038;5.566;2022-08-19T12:36:23;25.60;60.90
68764;DHT22;55754;52.038;5.566;2022-08-19T12:38:50;25.70;60.80
68764;DHT22;55754;52.038;5.566;2022-08-19T12:41:17;25.70;60.80
68764;DHT22;55754;52.038;5.566;2022-08-19T12:43:44;25.80;60.60
68764;DHT22;55754;52.038;5.566;2022-08-19T12:46:10;25.80;60.30
68764;DHT22;55754;52.038;5.566;2022-08-19T12:48:37;26.00;60.30
68764;DHT22;55754;52.038;5.566;2022-08-19T12:51:09;25.90;60.00
68764;DHT22;55754;52.038;5.566;2022-08-19T12:53:35;25.80;60.20
68764;DHT22;55754;52.038;5.566;2022-08-19T12:56:02;25.70;60.30
68764;DHT22;55754;52.038;5.566;2022-08-19T12:58:29;25.80;60.50
68764;DHT22;55754;52.038;5.566;2022-08-19T13:00:54;25.80;60.50
68764;DHT22;55754;52.038;5.566;2022-08-19T13:03:20;25.60;60.30
68764;DHT22;55754;52.038;5.566;2022-08-19T13:05:47;25.60;60.30
68764;DHT22;55754;52.038;5.566;2022-08-19T13:08:18;25.60;60.60
68764;DHT22;55754;52.038;5.566;2022-08-19T13:10:43;25.60;60.70
68764;DHT22;55754;52.038;5.566;2022-08-19T13:13:09;25.60;60.80
68764;DHT22;55754;52.038;5.566;2022-08-19T13:15:37;25.40;60.90
68764;DHT22;55754;52.038;5.566;2022-08-19T13:18:06;25.40;61.00
68764;DHT22;55754;52.038;5.566;2022-08-19T13:20:32;25.40;61.20
68764;DHT22;55754;52.038;5.566;2022-08-19T13:22:58;25.30;61.40
68764;DHT22;55754;52.038;5.566;2022-08-19T13:25:24;25.20;62.30
68764;DHT22;55754;52.038;5.566;2022-08-19T13:27:51;25.10;63.10
68764;DHT22;55754;52.038;5.566;2022-08-19T13:30:18;25.20;63.50
68764;DHT22;55754;52.038;5.566;2022-08-19T13:33:04;25.20;63.30
68764;DHT22;55754;52.038;5.566;2022-08-19T13:35:36;25.10;63.20
68764;DHT22;55754;52.038;5.566;2022-08-19T13:38:02;25.10;63.40
68764;DHT22;55754;52.038;5.566;2022-08-19T13:40:31;25.10;63.50
68764;DHT22;55754;52.038;5.566;2022-08-19T13:43:00;25.10;63.60
68764;DHT22;55754;52.038;5.566;2022-08-19T13:45:28;25.00;63.80
68764;DHT22;55754;52.038;5.566;2022-08-19T13:47:55;24.90;63.90
68764;DHT22;55754;52.038;5.566;2022-08-19T13:50:25;24.90;63.90
68764;DHT22;55754;52.038;5.566;2022-08-19T13:52:51;24.90;63.90
68764;DHT22;55754;52.038;5.566;2022-08-19T13:55:17;24.90;63.90
68764;DHT22;55754;52.038;5.566;2022-08-19T13:57:43;24.90;63.90
68764;DHT22;55754;52.038;5.566;2022-08-19T14:00:12;25.10;63.80
68764;DHT22;55754;52.038;5.566;2022-08-19T14:02:38;25.00;63.80
68764;DHT22;55754;52.038;5.566;2022-08-19T14:05:07;25.00;63.80
68764;DHT22;55754;52.038;5.566;2022-08-19T14:07:34;25.00;63.90
68764;DHT22;55754;52.038;5.566;2022-08-19T14:10:00;24.90;63.90
68764;DHT22;55754;52.038;5.566;2022-08-19T14:12:25;24.90;64.10
68764;DHT22;55754;52.038;5.566;2022-08-19T14:14:51;24.90;64.20
68764;DHT22;55754;52.038;5.566;2022-08-19T14:17:16;24.90;64.30
68764;DHT22;55754;52.038;5.566;2022-08-19T14:19:43;24.90;64.20
68764;DHT22;55754;52.038;5.566;2022-08-19T14:22:09;24.90;64.40
68764;DHT22;55754;52.038;5.566;2022-08-19T14:24:36;24.80;64.60
68764;DHT22;55754;52.038;5.566;2022-08-19T14:27:02;24.80;65.00
68764;DHT22;55754;52.038;5.566;2022-08-19T14:29:28;24.70;67.30
68764;DHT22;55754;52.038;5.566;2022-08-19T14:31:55;24.50;69.60
68764;DHT22;55754;52.038;5.566;2022-08-19T14:34:24;24.30;70.40
68764;DHT22;55754;52.038;5.566;2022-08-19T14:36:50;24.20;71.50
68764;DHT22;55754;52.038;5.566;2022-08-19T14:39:16;24.10;72.20
68764;DHT22;55754;52.038;5.566;2022-08-19T14:41:41;24.00;72.90
68764;DHT22;55754;52.038;5.566;2022-08-19T14:44:08;23.90;73.10
68764;DHT22;55754;52.038;5.566;2022-08-19T14:46:37;23.90;73.30
68764;DHT22;55754;52.038;5.566;2022-08-19T14:49:03;23.90;73.20
68764;DHT22;55754;52.038;5.566;2022-08-19T14:51:29;23.80;73.30
68764;DHT22;55754;52.038;5.566;2022-08-19T14:53:55;23.70;73.10
68764;DHT22;55754;52.038;5.566;2022-08-19T14:56:24;23.70;73.40
68764;DHT22;55754;52.038;5.566;2022-08-19T14:58:50;23.70;73.80
68764;DHT22;55754;52.038;5.566;2022-08-19T15:01:17;23.60;73.90
68764;DHT22;55754;52.038;5.566;2022-08-19T15:03:45;23.50;74.10
68764;DHT22;55754;52.038;5.566;2022-08-19T15:06:11;23.50;74.40
68764;DHT22;55754;52.038;5.566;2022-08-19T15:08:38;23.50;74.10
68764;DHT22;55754;52.038;5.566;2022-08-19T15:11:08;23.50;74.20
68764;DHT22;55754;52.038;5.566;2022-08-19T15:13:35;23.50;74.20
68764;DHT22;55754;52.038;5.566;2022-08-19T15:16:01;23.50;74.60
68764;DHT22;55754;52.038;5.566;2022-08-19T15:18:26;23.50;74.70
68764;DHT22;55754;52.038;5.566;2022-08-19T15:20:52;23.40;74.50
68764;DHT22;55754;52.038;5.566;2022-08-19T15:23:19;23.30;74.90
68764;DHT22;55754;52.038;5.566;2022-08-19T15:25:45;23.30;74.90
68764;DHT22;55754;52.038;5.566;2022-08-19T15:28:11;23.30;74.90
68764;DHT22;55754;52.038;5.566;2022-08-19T15:30:38;23.30;75.30
68764;DHT22;55754;52.038;5.566;2022-08-19T15:33:04;23.30;75.40
68764;DHT22;55754;52.038;5.566;2022-08-19T15:35:30;23.30;75.00
68764;DHT22;55754;52.038;5.566;2022-08-19T15:37:56;23.30;74.70
68764;DHT22;55754;52.038;5.566;2022-08-19T15:40:24;23.20;75.10
68764;DHT22;55754;52.038;5.566;2022-08-19T15:42:50;23.30;75.00